sensor_id;sensor_type;location;lat;lon;timestamp;P1;durP1;ratioP1;P2;durP2;ratioP2
62121;SDS011;48108;47.532;19.084;2023-04-06T03:58:48;14.30;;;7.68;;
62121;SDS011;48108;47.532;19.084;2023-04-06T04:01:55;14.55;;;9.13;;
62121;SDS011;48108;47.532;19.084;2023-04-06T04:04:58;13.60;;;6.40;;
62121;SDS011;48108;47.532;19.084;2023-04-06T04:08:01;13.85;;;7.80;;
62121;SDS011;48108;47.532;19.084;2023-04-06T04:11:05;16.65;;;8.07;;
62121;SDS011;48108;47.532;19.084;2023-04-06T04:14:09;13.80;;;7.72;;
62121;SDS011;48108;47.532;19.084;2023-04-06T04:17:12;14.02;;;7.70;;
62121;SDS011;48108;47.532;19.084;2023-04-06T04:20:15;16.67;;;8.25;;
62121;SDS011;48108;47.532;19.084;2023-04-06T04:23:22;16.42;;;7.97;;
62121;SDS011;48108;47.532;19.084;2023-04-06T04:26:28;12.02;;;7.45;;
62121;SDS011;48108;47.532;19.084;2023-04-06T04:29:31;12.40;;;7.30;;
62121;SDS011;48108;47.532;19.084;2023-04-06T04:32:35;13.70;;;7.60;;
62121;SDS011;48108;47.532;19.084;2023-04-06T04:35:39;10.98;;;7.00;;
62121;SDS011;48108;47.532;19.084;2023-04-06T04:38:43;12.68;;;6.65;;
62121;SDS011;48108;47.532;19.084;2023-04-06T04:41:47;10.98;;;6.75;;
62121;SDS011;48108;47.532;19.084;2023-04-06T04:44:51;14.68;;;7.35;;
62121;SDS011;48108;47.532;19.084;2023-04-06T04:47:55;11.68;;;6.60;;
62121;SDS011;48108;47.532;19.084;2023-04-06T04:51:00;16.42;;;6.80;;
62121;SDS011;48108;47.532;19.084;2023-04-06T04:54:04;14.43;;;6.60;;
62121;SDS011;48108;47.532;19.084;2023-04-06T04:57:07;12.45;;;6.75;;
62121;SDS011;48108;47.532;19.084;2023-04-06T05:00:11;11.40;;;6.75;;
62121;SDS011;48108;47.532;19.084;2023-04-06T05:03:20;11.12;;;7.05;;
62121;SDS011;48108;47.532;19.084;2023-04-06T05:06:28;14.15;;;6.47;;
62121;SDS011;48108;47.532;19.084;2023-04-06T05:09:31;13.65;;;6.90;;
62121;SDS011;48108;47.532;19.084;2023-04-06T05:12:34;12.77;;;7.55;;
62121;SDS011;48108;47.532;19.084;2023-04-06T05:15:37;13.50;;;7.43;;
62121;SDS011;48108;47.532;19.084;2023-04-06T05:18:42;14.38;;;7.35;;
62121;SDS011;48108;47.532;19.084;2023-04-06T05:21:45;12.98;;;6.47;;
62121;SDS011;48108;47.532;19.084;2023-04-06T05:24:49;16.42;;;7.70;;
62121;SDS011;48108;47.532;19.084;2023-04-06T05:27:52;12.07;;;7.10;;
62121;SDS011;48108;47.532;19.084;2023-04-06T05:30:58;13.48;;;7.78;;
62121;SDS011;48108;47.532;19.084;2023-04-06T05:34:03;11.23;;;6.43;;
62121;SDS011;48108;47.532;19.084;2023-04-06T05:37:06;15.00;;;7.28;;
62121;SDS011;48108;47.532;19.084;2023-04-06T05:40:10;16.08;;;7.53;;
62121;SDS011;48108;47.532;19.084;2023-04-06T05:43:14;17.37;;;8.77;;
62121;SDS011;48108;47.532;19.084;2023-04-06T05:46:18;15.13;;;7.35;;
62121;SDS011;48108;47.532;19.084;2023-04-06T05:49:21;14.98;;;7.37;;
62121;SDS011;48108;47.532;19.084;2023-04-06T05:52:24;18.02;;;8.90;;
62121;SDS011;48108;47.532;19.084;2023-04-06T05:55:28;14.82;;;7.70;;
62121;SDS011;48108;47.532;19.084;2023-04-06T05:58:32;17.17;;;7.85;;
62121;SDS011;48108;47.532;19.084;2023-04-06T06:01:36;15.95;;;7.47;;
62121;SDS011;48108;47.532;19.084;2023-04-06T06:04:40;14.38;;;7.82;;
62121;SDS011;48108;47.532;19.084;2023-04-06T06:07:43;14.50;;;7.85;;
62121;SDS011;48108;47.532;19.084;2023-04-06T06:10:47;15.68;;;8.02;;
62121;SDS011;48108;47.532;19.084;2023-04-06T06:13:51;11.63;;;7.25;;
62121;SDS011;48108;47.532;19.084;2023-04-06T06:16:54;14.93;;;8.00;;
62121;SDS011;48108;47.532;19.084;2023-04-06T06:19:57;19.10;;;8.90;;
62121;SDS011;48108;47.532;19.084;2023-04-06T06:23:01;15.82;;;8.25;;
62121;SDS011;48108;47.532;19.084;2023-04-06T06:26:09;17.85;;;8.77;;
62121;SDS011;48108;47.532;19.084;2023-04-06T06:29:12;13.70;;;7.80;;
62121;SDS011;48108;47.532;19.084;2023-04-06T06:32:15;18.55;;;9.45;;
62121;SDS011;48108;47.532;19.084;2023-04-06T06:35:19;17.42;;;8.70;;
62121;SDS011;48108;47.532;19.084;2023-04-06T06:38:22;21.40;;;8.23;;
62121;SDS011;48108;47.532;19.084;2023-04-06T06:41:26;16.25;;;8.27;;
62121;SDS011;48108;47.532;19.084;2023-04-06T06:44:29;20.58;;;8.75;;
62121;SDS011;48108;47.532;19.084;2023-04-06T06:47:32;16.60;;;8.18;;
62121;SDS011;48108;47.532;19.084;2023-04-06T06:50:35;18.98;;;7.85;;
62121;SDS011;48108;47.532;19.084;2023-04-06T06:53:39;16.92;;;6.97;;
62121;SDS011;48108;47.532;19.084;2023-04-06T06:56:43;17.37;;;8.18;;
62121;SDS011;48108;47.532;19.084;2023-04-06T06:59:46;14.60;;;7.07;;
62121;SDS011;48108;47.532;19.084;2023-04-06T07:02:49;13.02;;;7.57;;
62121;SDS011;48108;47.532;19.084;2023-04-06T07:05:53;17.37;;;8.27;;
62121;SDS011;48108;47.532;19.084;2023-04-06T07:08:56;12.98;;;7.50;;
62121;SDS011;48108;47.532;19.084;2023-04-06T07:11:59;16.35;;;7.60;;
62121;SDS011;48108;47.532;19.084;2023-04-06T07:15:04;12.27;;;7.28;;
62121;SDS011;48108;47.532;19.084;2023-04-06T07:18:08;12.80;;;7.32;;
62121;SDS011;48108;47.532;19.084;2023-04-06T07:21:11;12.37;;;7.55;;
62121;SDS011;48108;47.532;19.084;2023-04-06T07:24:15;20.75;;;7.78;;
62121;SDS011;48108;47.532;19.084;2023-04-06T07:27:18;16.67;;;7.45;;
62121;SDS011;48108;47.532;19.084;2023-04-06T07:30:21;16.10;;;8.25;;
62121;SDS011;48108;47.532;19.084;2023-04-06T07:33:24;16.00;;;7.40;;
62121;SDS011;48108;47.532;19.084;2023-04-06T07:36:32;12.65;;;7.55;;
62121;SDS011;48108;47.532;19.084;2023-04-06T07:39:35;13.20;;;7.25;;
62121;SDS011;48108;47.532;19.084;2023-04-06T07:42:39;12.37;;;6.60;;
62121;SDS011;48108;47.532;19.084;2023-04-06T07:45:42;13.65;;;7.65;;
62121;SDS011;48108;47.532;19.084;2023-04-06T07:48:45;15.98;;;7.50;;
62121;SDS011;48108;47.532;19.084;2023-04-06T07:51:48;12.75;;;7.00;;
62121;SDS011;48108;47.532;19.084;2023-04-06T07:54:52;13.80;;;7.30;;
62121;SDS011;48108;47.532;19.084;2023-04-06T07:57:55;14.98;;;7.20;;
62121;SDS011;48108;47.532;19.084;2023-04-06T08:00:58;13.13;;;6.95;;
62121;SDS011;48108;47.532;19.084;2023-04-06T08:04:02;14.15;;;6.45;;
62121;SDS011;48108;47.532;19.084;2023-04-06T08:07:05;10.52;;;7.03;;
62121;SDS011;48108;47.532;19.084;2023-04-06T08:10:08;13.50;;;7.20;;
62121;SDS011;48108;47.532;19.084;2023-04-06T08:13:11;17.05;;;7.32;;
62121;SDS011;48108;47.532;19.084;2023-04-06T08:16:14;13.98;;;6.68;;
62121;SDS011;48108;47.532;19.084;2023-04-06T08:19:17;15.07;;;6.90;;
62121;SDS011;48108;47.532;19.084;2023-04-06T08:22:21;13.05;;;6.80;;
62121;SDS011;48108;47.532;19.084;2023-04-06T08:25:24;13.00;;;6.90;;
62121;SDS011;48108;47.532;19.084;2023-04-06T08:28:27;14.13;;;7.62;;
62121;SDS011;48108;47.532;19.084;2023-04-06T08:31:30;12.73;;;7.12;;
62121;SDS011;48108;47.532;19.084;2023-04-06T08:34:33;12.43;;;7.25;;
62121;SDS011;48108;47.532;19.084;2023-04-06T08:37:36;13.25;;;7.12;;
62121;SDS011;48108;47.532;19.084;2023-04-06T08:40:40;15.38;;;7.22;;
62121;SDS011;48108;47.532;19.084;2023-04-06T08:46:50;12.88;;;6.70;;
62121;SDS011;48108;47.532;19.084;2023-04-06T08:49:55;11.10;;;6.85;;
62121;SDS011;48108;47.532;19.084;2023-04-06T08:52:59;11.10;;;6.65;;
62121;SDS011;48108;47.532;19.084;2023-04-06T08:56:03;15.15;;;7.37;;
62121;SDS011;48108;47.532;19.084;2023-04-06T08:59:08;11.12;;;6.57;;
62121;SDS011;48108;47.532;19.084;2023-04-06T09:02:15;10.77;;;6.00;;
62121;SDS011;48108;47.532;19.084;2023-04-06T09:05:20;10.60;;;5.90;;
62121;SDS011;48108;47.532;19.084;2023-04-06T09:08:26;13.85;;;6.45;;
62121;SDS011;48108;47.532;19.084;2023-04-06T09:11:40;10.43;;;5.85;;
62121;SDS011;48108;47.532;19.084;2023-04-06T09:14:48;9.60;;;5.70;;
62121;SDS011;48108;47.532;19.084;2023-04-06T09:17:51;9.68;;;5.90;;
62121;SDS011;48108;47.532;19.084;2023-04-06T09:20:57;13.77;;;6.03;;
62121;SDS011;48108;47.532;19.084;2023-04-06T09:24:01;10.02;;;6.30;;
62121;SDS011;48108;47.532;19.084;2023-04-06T09:27:05;8.88;;;6.15;;
62121;SDS011;48108;47.532;19.084;2023-04-06T09:30:09;9.50;;;5.65;;
62121;SDS011;48108;47.532;19.084;2023-04-06T09:33:22;8.73;;;4.95;;
62121;SDS011;48108;47.532;19.084;2023-04-06T09:36:32;9.38;;;5.80;;
62121;SDS011;48108;47.532;19.084;2023-04-06T09:39:43;10.25;;;5.97;;
62121;SDS011;48108;47.532;19.084;2023-04-06T09:42:50;11.15;;;6.20;;
62121;SDS011;48108;47.532;19.084;2023-04-06T09:46:00;10.00;;;6.62;;
62121;SDS011;48108;47.532;19.084;2023-04-06T09:49:06;9.20;;;5.87;;
62121;SDS011;48108;47.532;19.084;2023-04-06T09:52:10;10.65;;;5.65;;
62121;SDS011;48108;47.532;19.084;2023-04-06T09:55:20;9.45;;;5.90;;
62121;SDS011;48108;47.532;19.084;2023-04-06T09:58:34;10.52;;;5.60;;
62121;SDS011;48108;47.532;19.084;2023-04-06T10:01:40;11.23;;;6.28;;
62121;SDS011;48108;47.532;19.084;2023-04-06T10:04:43;9.32;;;5.82;;
62121;SDS011;48108;47.532;19.084;2023-04-06T10:07:57;10.50;;;6.15;;
62121;SDS011;48108;47.532;19.084;2023-04-06T10:11:03;10.55;;;6.10;;
62121;SDS011;48108;47.532;19.084;2023-04-06T10:14:05;9.02;;;6.03;;
62121;SDS011;48108;47.532;19.084;2023-04-06T10:17:09;9.07;;;5.68;;
62121;SDS011;48108;47.532;19.084;2023-04-06T10:23:58;11.38;;;5.90;;
62121;SDS011;48108;47.532;19.084;2023-04-06T10:27:03;10.88;;;5.55;;
62121;SDS011;48108;47.532;19.084;2023-04-06T10:30:07;9.88;;;5.93;;
62121;SDS011;48108;47.532;19.084;2023-04-06T10:36:22;12.55;;;6.30;;
62121;SDS011;48108;47.532;19.084;2023-04-06T10:39:27;7.78;;;5.45;;
62121;SDS011;48108;47.532;19.084;2023-04-06T10:42:37;6.55;;;5.03;;
62121;SDS011;48108;47.532;19.084;2023-04-06T10:48:45;9.45;;;5.35;;
62121;SDS011;48108;47.532;19.084;2023-04-06T10:51:55;9.18;;;5.22;;
62121;SDS011;48108;47.532;19.084;2023-04-06T10:54:59;11.00;;;5.72;;
62121;SDS011;48108;47.532;19.084;2023-04-06T10:58:05;8.82;;;5.55;;
62121;SDS011;48108;47.532;19.084;2023-04-06T11:01:10;8.13;;;5.12;;
62121;SDS011;48108;47.532;19.084;2023-04-06T11:04:17;6.12;;;5.15;;
62121;SDS011;48108;47.532;19.084;2023-04-06T11:07:24;9.77;;;5.28;;
62121;SDS011;48108;47.532;19.084;2023-04-06T11:10:29;10.23;;;5.20;;
62121;SDS011;48108;47.532;19.084;2023-04-06T11:13:40;14.55;;;5.80;;
62121;SDS011;48108;47.532;19.084;2023-04-06T11:17:01;6.43;;;4.75;;
62121;SDS011;48108;47.532;19.084;2023-04-06T11:20:09;8.30;;;5.10;;
62121;SDS011;48108;47.532;19.084;2023-04-06T11:23:14;7.47;;;5.18;;
62121;SDS011;48108;47.532;19.084;2023-04-06T11:26:25;9.25;;;5.35;;
62121;SDS011;48108;47.532;19.084;2023-04-06T11:29:29;7.60;;;5.43;;
62121;SDS011;48108;47.532;19.084;2023-04-06T11:32:43;9.18;;;5.30;;
62121;SDS011;48108;47.532;19.084;2023-04-06T11:35:46;7.78;;;4.82;;
62121;SDS011;48108;47.532;19.084;2023-04-06T11:38:49;7.57;;;5.05;;
62121;SDS011;48108;47.532;19.084;2023-04-06T11:41:53;7.45;;;4.85;;
62121;SDS011;48108;47.532;19.084;2023-04-06T11:45:00;7.97;;;4.85;;
62121;SDS011;48108;47.532;19.084;2023-04-06T11:48:03;9.57;;;5.10;;
62121;SDS011;48108;47.532;19.084;2023-04-06T11:51:07;8.93;;;5.30;;
62121;SDS011;48108;47.532;19.084;2023-04-06T11:54:10;9.27;;;5.28;;
62121;SDS011;48108;47.532;19.084;2023-04-06T11:57:13;9.10;;;5.53;;
62121;SDS011;48108;47.532;19.084;2023-04-06T12:00:17;6.75;;;4.80;;
62121;SDS011;48108;47.532;19.084;2023-04-06T12:03:20;10.70;;;4.97;;
62121;SDS011;48108;47.532;19.084;2023-04-06T12:06:23;7.87;;;4.95;;
62121;SDS011;48108;47.532;19.084;2023-04-06T12:09:28;8.60;;;5.40;;
62121;SDS011;48108;47.532;19.084;2023-04-06T12:12:32;8.27;;;5.40;;
62121;SDS011;48108;47.532;19.084;2023-04-06T12:15:35;10.85;;;5.57;;
62121;SDS011;48108;47.532;19.084;2023-04-06T12:18:37;7.80;;;5.37;;
62121;SDS011;48108;47.532;19.084;2023-04-06T12:21:41;7.82;;;4.72;;
62121;SDS011;48108;47.532;19.084;2023-04-06T12:24:44;9.25;;;4.87;;
62121;SDS011;48108;47.532;19.084;2023-04-06T12:27:47;7.95;;;4.82;;
62121;SDS011;48108;47.532;19.084;2023-04-06T12:30:51;6.03;;;4.72;;
62121;SDS011;48108;47.532;19.084;2023-04-06T12:33:53;8.30;;;5.32;;
62121;SDS011;48108;47.532;19.084;2023-04-06T12:36:57;6.35;;;4.70;;
62121;SDS011;48108;47.532;19.084;2023-04-06T12:40:00;8.13;;;5.20;;
62121;SDS011;48108;47.532;19.084;2023-04-06T12:43:07;8.45;;;5.10;;
62121;SDS011;48108;47.532;19.084;2023-04-06T12:46:11;6.93;;;4.97;;
62121;SDS011;48108;47.532;19.084;2023-04-06T12:49:14;13.43;;;6.00;;
62121;SDS011;48108;47.532;19.084;2023-04-06T12:52:21;7.60;;;5.40;;
62121;SDS011;48108;47.532;19.084;2023-04-06T12:55:23;8.57;;;5.72;;
62121;SDS011;48108;47.532;19.084;2023-04-06T12:58:28;9.57;;;5.40;;
62121;SDS011;48108;47.532;19.084;2023-04-06T13:01:32;8.60;;;4.90;;
62121;SDS011;48108;47.532;19.084;2023-04-06T13:04:35;10.10;;;4.95;;
62121;SDS011;48108;47.532;19.084;2023-04-06T13:07:38;7.68;;;5.50;;
62121;SDS011;48108;47.532;19.084;2023-04-06T13:10:46;9.57;;;5.35;;
62121;SDS011;48108;47.532;19.084;2023-04-06T13:13:50;9.98;;;5.20;;
62121;SDS011;48108;47.532;19.084;2023-04-06T13:16:53;8.68;;;4.80;;
62121;SDS011;48108;47.532;19.084;2023-04-06T13:19:57;7.53;;;5.00;;
62121;SDS011;48108;47.532;19.084;2023-04-06T13:23:00;9.40;;;5.37;;
62121;SDS011;48108;47.532;19.084;2023-04-06T13:26:04;8.07;;;4.75;;
62121;SDS011;48108;47.532;19.084;2023-04-06T13:29:08;8.60;;;5.22;;
62121;SDS011;48108;47.532;19.084;2023-04-06T13:32:11;5.90;;;4.60;;
62121;SDS011;48108;47.532;19.084;2023-04-06T13:35:14;7.43;;;5.15;;
62121;SDS011;48108;47.532;19.084;2023-04-06T13:38:17;10.52;;;4.97;;
62121;SDS011;48108;47.532;19.084;2023-04-06T13:41:21;9.15;;;4.75;;
62121;SDS011;48108;47.532;19.084;2023-04-06T13:44:24;8.52;;;5.05;;
62121;SDS011;48108;47.532;19.084;2023-04-06T13:47:27;7.22;;;5.10;;
62121;SDS011;48108;47.532;19.084;2023-04-06T13:50:30;7.55;;;4.70;;
62121;SDS011;48108;47.532;19.084;2023-04-06T13:53:36;8.82;;;4.70;;
62121;SDS011;48108;47.532;19.084;2023-04-06T13:56:41;7.90;;;4.68;;
62121;SDS011;48108;47.532;19.084;2023-04-06T13:59:44;5.97;;;4.50;;
62121;SDS011;48108;47.532;19.084;2023-04-06T14:02:48;10.27;;;4.90;;
62121;SDS011;48108;47.532;19.084;2023-04-06T14:05:53;8.20;;;4.45;;
62121;SDS011;48108;47.532;19.084;2023-04-06T14:08:58;6.72;;;4.45;;
62121;SDS011;48108;47.532;19.084;2023-04-06T14:12:01;10.00;;;4.80;;
62121;SDS011;48108;47.532;19.084;2023-04-06T14:15:03;8.30;;;4.50;;
62121;SDS011;48108;47.532;19.084;2023-04-06T14:18:07;7.37;;;5.00;;
62121;SDS011;48108;47.532;19.084;2023-04-06T14:21:11;8.20;;;4.78;;
62121;SDS011;48108;47.532;19.084;2023-04-06T14:24:14;6.68;;;4.40;;
62121;SDS011;48108;47.532;19.084;2023-04-06T14:27:17;9.68;;;4.50;;
62121;SDS011;48108;47.532;19.084;2023-04-06T14:30:20;6.30;;;4.75;;
62121;SDS011;48108;47.532;19.084;2023-04-06T14:33:23;9.02;;;4.95;;
62121;SDS011;48108;47.532;19.084;2023-04-06T14:36:27;6.85;;;4.60;;
62121;SDS011;48108;47.532;19.084;2023-04-06T14:39:31;5.95;;;4.10;;
62121;SDS011;48108;47.532;19.084;2023-04-06T14:42:35;7.97;;;4.57;;
62121;SDS011;48108;47.532;19.084;2023-04-06T14:45:38;8.77;;;4.32;;
62121;SDS011;48108;47.532;19.084;2023-04-06T14:48:42;10.18;;;4.93;;
62121;SDS011;48108;47.532;19.084;2023-04-06T14:51:45;9.02;;;4.95;;
62121;SDS011;48108;47.532;19.084;2023-04-06T14:54:48;6.85;;;5.00;;
62121;SDS011;48108;47.532;19.084;2023-04-06T14:57:50;7.25;;;4.90;;
62121;SDS011;48108;47.532;19.084;2023-04-06T15:00:58;9.23;;;4.82;;
62121;SDS011;48108;47.532;19.084;2023-04-06T15:04:02;9.60;;;4.68;;
62121;SDS011;48108;47.532;19.084;2023-04-06T15:07:06;6.62;;;4.07;;
62121;SDS011;48108;47.532;19.084;2023-04-06T15:10:10;7.75;;;4.55;;
62121;SDS011;48108;47.532;19.084;2023-04-06T15:13:15;7.53;;;4.55;;
62121;SDS011;48108;47.532;19.084;2023-04-06T15:16:18;7.87;;;5.25;;
62121;SDS011;48108;47.532;19.084;2023-04-06T15:19:21;8.60;;;4.80;;
62121;SDS011;48108;47.532;19.084;2023-04-06T15:22:24;10.07;;;5.22;;
62121;SDS011;48108;47.532;19.084;2023-04-06T15:25:27;8.50;;;4.68;;
62121;SDS011;48108;47.532;19.084;2023-04-06T15:28:30;8.60;;;4.75;;
62121;SDS011;48108;47.532;19.084;2023-04-06T15:31:33;7.95;;;4.75;;
62121;SDS011;48108;47.532;19.084;2023-04-06T15:34:57;9.18;;;4.72;;
62121;SDS011;48108;47.532;19.084;2023-04-06T15:38:01;8.20;;;5.10;;
62121;SDS011;48108;47.532;19.084;2023-04-06T15:41:04;9.20;;;5.32;;
62121;SDS011;48108;47.532;19.084;2023-04-06T15:44:07;9.23;;;5.30;;
62121;SDS011;48108;47.532;19.084;2023-04-06T15:47:10;9.65;;;5.20;;
62121;SDS011;48108;47.532;19.084;2023-04-06T15:50:14;9.05;;;5.00;;
62121;SDS011;48108;47.532;19.084;2023-04-06T15:53:17;9.50;;;5.20;;
62121;SDS011;48108;47.532;19.084;2023-04-06T15:56:20;8.63;;;5.22;;
